6780000 - Middle Loup River at Rockville

Latitude:
41.11082º N
Longitude:
98.83563º W
Type:
Stream
River Basin:
Loup
Source:
NeDNR

Info! The graphs are now plotted with new date ranges.
Warning! If you see this please check date range (or) the data is not available.

 to 


—— Provisional Data Subject to Revision ——

Instantaneous Discharge

6780000 - Middle Loup River at Rockville
- Ice Possible      - Equipment Malfunction
- Seasonal      -Rating in Development
- Measured



Instantaneous Stage

6780000 - Middle Loup River at Rockville
- Ice Possible      - Equipment Malfunction
- Seasonal      -Rating in Development
- Measured



 to 


—— Provisional Data Subject to Revision ——

Daily Discharge

6780000 - Middle Loup River at Rockville
- Approved      - Provisional


Export
Date Time Discharge (cfs) Stage (feet) Shift (feet)
12/23/2019 9:45 1,110 5.74 0.57
11/26/2019 8:45 1,140 5.56 0.76
10/29/2019 16:00 1,240 5.70 0.66
10/02/2019 15:45 1,660 5.80 0.73
09/04/2019 16:15 1,530 5.62 0.86
08/08/2019 12:15 1,230 5.59 0.77
07/09/2019 10:30 3,470 6.81 0.27
06/14/2019 11:00 788 5.48 0.65
05/28/2019 15:15 3,100 6.17 0.82
05/15/2019 15:16 806 5.31 0.83
04/16/2019 12:45 1,290 5.56 0.82
03/18/2019 11:30 2,470 4.80 2.02
03/15/2019 11:30 4,570 6.11 1.18
03/08/2019 14:00 1,160 7.91 -1.58
12/21/2018 10:00 1,250 6.08 0.29
11/28/2018 12:00 1,120 6.28 0.03
10/30/2018 11:30 1,040 6.25 0.02
10/03/2018 13:30 1,130 6.58 -0.26
09/06/2018 10:15 990 6.37 -0.12
08/08/2018 14:49 832 6.22 -0.06
07/10/2018 16:31 770 6.16 -0.04
06/26/2018 11:30 1,660 6.68 -0.15
06/15/2018 10:24 524 5.94 0.00
05/16/2018 16:15 799 6.20 -0.06
04/19/2018 12:15 1,120 6.11 0.20
03/14/2018 16:00 1,300 6.15 0.24
02/26/2018 11:45 949 7.81 -1.58
01/25/2018 15:00 1,120 7.79 -1.48
12/20/2017 10:30 1,040 6.06 0.21
11/28/2017 12:15 1,120 6.02 0.29
11/02/2017 14:45 1,020 6.08 0.18
10/02/2017 16:30 5,420 7.40 0.03
09/07/2017 9:51 445 5.65 0.22
08/17/2017 14:15 2,970 7.07 -0.11
08/16/2017 13:30 7,040 7.71 -0.06
08/08/2017 14:21 207 5.55 0.00
07/12/2017 15:11 182 5.31 0.19
06/13/2017 16:36 348 5.58 0.19
05/23/2017 10:30 1,030 6.23 0.04
04/25/2017 16:00 624 6.13 -0.11
03/22/2017 12:30 1,130 6.27 0.05
02/16/2017 10:30 1,460 6.18 0.27
01/13/2017 11:45 1,120 6.57 -0.26
12/01/2016 11:00 946 6.23 -0.01
11/03/2016 16:15 1,080 6.41 -0.12
10/04/2016 15:30 947 6.40 -0.18
09/01/2016 10:37 295 5.82 -0.12
08/11/2016 10:30 366 5.75 0.04
07/12/2016 10:14 363 5.82 -0.04
06/14/2016 11:21 402 5.93 -0.10
05/17/2016 9:45 1,170 6.28 0.05
04/18/2016 15:00 2,040 6.72 -0.04
03/21/2016 15:45 924 6.12 0.09
02/19/2016 13:00 1,210 6.14 0.21
02/01/2016 10:15 1,260 6.59 -0.22
12/23/2015 10:00 1,140 6.39 -0.07
12/02/2015 14:43 1,250 6.24 0.13
11/18/2015 14:30 2,060 6.54 0.15
11/03/2015 11:00 1,050 6.22 0.06
10/06/2015 10:43 749 6.21 -0.10
09/09/2015 11:14 265 5.71 -0.06
08/11/2015 10:11 465 5.94 -0.05
07/16/2015 17:02 180 5.49 0.00
07/14/2015 12:30 183 5.49 0.01
06/17/2015 15:45 866 6.32 -0.14
06/04/2015 10:45 981 6.35 -0.11
05/19/2015 11:00 963 6.23 0.00
05/07/2015 15:30 852 6.13 0.04
04/21/2015 16:30 880 6.01 0.18
04/15/2015 13:15 550 6.11
03/31/2015 14:46 898 6.08
Export